LFPV 210400Z AUTO 34006KT 310V020 9999 OVC010 02/00 Q1036 TEMPO 3000 BR

ElémentsDécodage
LFPV Station météo située sur l'aérodrome de VILLACOUBLAY Vélizy
210400Z émis le 21 du mois à 04h00 UTC
AUTO Bulletin édité par un automate
34006KT vent du 340°, 06 noeuds
310V020 vent de direction variable entre 310° et 020°
9999 visibilité horizontale supérieure à 10 Km
OVC010 couverture nuageuse totale (8/8) à 1000 pieds
02/00 température 02°C, point de rosée 00°C
 soit une humidité relative de 87%
Q1036 la pression au niveau de la mer (QNH) est de 1036 hPa
TEMPO fluctuation temporaire prévue
3000 visibilité horizontale de 3000 mètres
BR brume